createdAt,value
2019-03-06T00:01:20.040Z,6.50
2019-03-06T00:03:49.413Z,6.60
2019-03-06T00:06:18.803Z,6.70
2019-03-06T00:08:48.254Z,6.60
2019-03-06T00:11:17.839Z,6.60
2019-03-06T00:13:47.246Z,6.60
2019-03-06T00:16:16.622Z,6.60
2019-03-06T00:18:46.024Z,6.50
2019-03-06T00:21:15.443Z,6.50
2019-03-06T00:23:44.922Z,6.50
2019-03-06T00:26:14.338Z,6.40
2019-03-06T00:28:43.711Z,6.40
2019-03-06T00:31:13.105Z,6.30
2019-03-06T00:33:42.501Z,6.30
2019-03-06T00:36:19.558Z,6.30
2019-03-06T00:38:49.012Z,6.20
2019-03-06T00:41:28.989Z,6.20
2019-03-06T00:43:58.570Z,6.20
2019-03-06T00:46:27.947Z,6.20
2019-03-06T00:48:57.375Z,6.20
2019-03-06T00:51:26.754Z,6.20
2019-03-06T00:53:56.171Z,6.20
2019-03-06T00:56:25.676Z,6.10
2019-03-06T00:58:55.038Z,6.10
2019-03-06T01:01:24.465Z,6.10
2019-03-06T01:03:54.091Z,6.10
2019-03-06T01:06:23.585Z,6.10
2019-03-06T01:08:52.966Z,6.10
2019-03-06T01:11:22.459Z,6.10
2019-03-06T01:13:54.439Z,6.00
2019-03-06T01:16:23.810Z,5.90
2019-03-06T01:18:53.784Z,5.90
2019-03-06T01:21:23.171Z,5.90
2019-03-06T01:23:52.555Z,5.80
2019-03-06T01:26:22.064Z,5.90
2019-03-06T01:28:51.431Z,5.80
2019-03-06T01:31:21.042Z,5.80
2019-03-06T01:34:21.280Z,5.80
2019-03-06T01:36:57.032Z,5.80
2019-03-06T01:39:45.363Z,5.80
2019-03-06T01:42:23.087Z,5.80
2019-03-06T01:45:00.783Z,5.70
2019-03-06T01:47:30.921Z,5.80
2019-03-06T01:50:00.642Z,5.80
2019-03-06T01:52:30.519Z,5.90
2019-03-06T01:55:00.538Z,5.90
2019-03-06T01:57:29.916Z,5.90
2019-03-06T01:59:59.669Z,5.80
2019-03-06T02:02:29.039Z,5.80
2019-03-06T02:04:58.425Z,5.80
2019-03-06T02:07:27.917Z,5.70
2019-03-06T02:09:57.386Z,5.70
2019-03-06T02:12:26.787Z,5.70
2019-03-06T02:14:56.221Z,5.60
2019-03-06T02:17:25.677Z,5.50
2019-03-06T02:19:55.044Z,5.60
2019-03-06T02:22:24.409Z,5.60
2019-03-06T02:24:53.806Z,5.60
2019-03-06T02:27:23.183Z,5.60
2019-03-06T02:29:52.583Z,5.50
2019-03-06T02:32:21.959Z,5.50
2019-03-06T02:34:51.332Z,5.40
2019-03-06T02:37:20.772Z,5.40
2019-03-06T02:39:50.142Z,5.40
2019-03-06T02:42:19.552Z,5.50
2019-03-06T02:44:48.923Z,5.40
2019-03-06T02:47:18.425Z,5.40
2019-03-06T02:49:47.813Z,5.30
2019-03-06T02:52:17.194Z,5.30
2019-03-06T02:54:46.596Z,5.30
2019-03-06T02:57:16.076Z,5.30
2019-03-06T02:59:53.848Z,5.30
2019-03-06T03:02:48.069Z,5.30
2019-03-06T03:05:29.949Z,5.40
2019-03-06T03:07:59.327Z,5.50
2019-03-06T03:10:28.763Z,5.50
2019-03-06T03:12:58.135Z,5.50
2019-03-06T03:15:27.560Z,5.60
2019-03-06T03:17:56.936Z,5.50
2019-03-06T03:20:26.340Z,5.50
2019-03-06T03:22:55.732Z,5.50
2019-03-06T03:25:25.112Z,5.50
2019-03-06T03:27:54.547Z,5.50
2019-03-06T03:30:23.929Z,5.50
2019-03-06T03:32:53.321Z,5.50
2019-03-06T03:35:22.696Z,5.50
2019-03-06T03:37:52.494Z,5.40
2019-03-06T03:40:21.867Z,5.40
2019-03-06T03:42:51.347Z,5.30
2019-03-06T03:45:20.787Z,5.20
2019-03-06T03:47:50.160Z,5.20
2019-03-06T03:50:19.565Z,5.30
2019-03-06T03:52:48.967Z,5.30
2019-03-06T03:55:18.602Z,5.40
2019-03-06T03:57:47.991Z,5.40
2019-03-06T04:00:17.442Z,5.50
2019-03-06T04:02:46.847Z,5.50
2019-03-06T04:05:16.233Z,5.50
2019-03-06T04:07:45.655Z,5.60
2019-03-06T04:10:15.165Z,5.60
2019-03-06T04:12:44.567Z,5.70
2019-03-06T04:15:14.077Z,5.70
2019-03-06T04:17:43.506Z,5.70
2019-03-06T04:20:13.011Z,5.80
2019-03-06T04:22:42.395Z,5.80
2019-03-06T04:25:11.938Z,5.70
2019-03-06T04:27:41.313Z,5.70
2019-03-06T04:30:11.887Z,5.70
2019-03-06T04:32:41.274Z,5.60
2019-03-06T04:35:10.792Z,5.60
2019-03-06T04:37:40.248Z,5.60
2019-03-06T04:40:09.663Z,5.50
2019-03-06T04:42:39.053Z,5.50
2019-03-06T04:45:08.835Z,5.50
2019-03-06T04:47:38.261Z,5.50
2019-03-06T04:50:08.266Z,5.40
2019-03-06T04:52:37.671Z,5.40
2019-03-06T04:55:07.236Z,5.30
2019-03-06T04:57:36.614Z,5.30
2019-03-06T05:00:06.772Z,5.30
2019-03-06T05:02:36.179Z,5.20
2019-03-06T05:05:06.051Z,5.20
2019-03-06T05:07:35.436Z,5.10
2019-03-06T05:10:04.952Z,5.10
2019-03-06T05:12:34.379Z,5.10
2019-03-06T05:15:03.773Z,5.10
2019-03-06T05:17:41.815Z,5.20
2019-03-06T05:20:11.331Z,5.20
2019-03-06T05:22:40.734Z,5.20
2019-03-06T05:25:10.125Z,5.20
2019-03-06T05:27:39.532Z,5.10
2019-03-06T05:30:09.455Z,5.10
2019-03-06T05:32:39.119Z,5.10
2019-03-06T05:35:15.236Z,5.00
2019-03-06T05:38:08.762Z,5.00
2019-03-06T05:40:38.175Z,4.90
2019-03-06T05:43:07.543Z,4.80
2019-03-06T05:45:36.954Z,4.80
2019-03-06T05:48:06.354Z,4.70
2019-03-06T05:50:35.771Z,4.70
2019-03-06T05:53:05.140Z,4.70
2019-03-06T05:55:34.580Z,4.70
2019-03-06T05:58:03.968Z,4.80
2019-03-06T06:00:33.339Z,4.70
2019-03-06T06:03:02.926Z,4.80
2019-03-06T06:05:32.301Z,4.80
2019-03-06T06:08:01.707Z,4.80
2019-03-06T06:10:31.115Z,4.90
2019-03-06T06:13:00.503Z,4.90
2019-03-06T06:15:29.871Z,4.80
2019-03-06T06:17:59.280Z,4.80
2019-03-06T06:20:28.643Z,4.80
2019-03-06T06:23:16.097Z,4.70
2019-03-06T06:25:45.469Z,4.70
2019-03-06T06:28:14.856Z,4.70
2019-03-06T06:30:44.256Z,4.60
2019-03-06T06:33:13.637Z,4.70
2019-03-06T06:35:43.054Z,4.70
2019-03-06T06:38:12.499Z,4.80
2019-03-06T06:40:42.007Z,4.80
2019-03-06T06:43:11.387Z,4.80
2019-03-06T06:45:40.786Z,4.80
2019-03-06T06:48:20.901Z,4.90
2019-03-06T06:51:14.060Z,5.00
2019-03-06T06:53:53.267Z,5.00
2019-03-06T06:56:50.831Z,5.10
2019-03-06T06:59:44.845Z,5.20
2019-03-06T07:03:08.066Z,5.20
2019-03-06T07:05:43.949Z,5.30
2019-03-06T07:08:32.315Z,5.40
2019-03-06T07:11:19.044Z,5.40
2019-03-06T07:14:01.005Z,5.60
2019-03-06T07:16:47.727Z,5.70
2019-03-06T07:19:28.161Z,5.80
2019-03-06T07:22:15.070Z,5.90
2019-03-06T07:25:15.656Z,6.10
2019-03-06T07:28:08.701Z,6.20
2019-03-06T07:31:00.033Z,6.30
2019-03-06T07:33:48.349Z,6.30
2019-03-06T07:36:34.872Z,6.40
2019-03-06T07:39:22.758Z,6.40
2019-03-06T07:42:17.162Z,6.40
2019-03-06T07:45:47.027Z,6.50
2019-03-06T07:48:47.559Z,6.60
2019-03-06T07:51:25.264Z,6.80
2019-03-06T07:54:10.299Z,6.80
2019-03-06T07:56:46.793Z,6.90
2019-03-06T07:59:16.212Z,7.00
2019-03-06T08:01:52.015Z,7.10
2019-03-06T08:04:21.433Z,7.10
2019-03-06T08:07:15.892Z,7.20
2019-03-06T08:09:45.407Z,7.20
2019-03-06T08:12:33.743Z,7.30
2019-03-06T08:15:26.511Z,7.30
2019-03-06T08:18:11.125Z,7.40
2019-03-06T08:20:58.029Z,7.40
2019-03-06T08:23:32.934Z,7.50
2019-03-06T08:26:02.340Z,7.60
2019-03-06T08:28:31.815Z,7.60
2019-03-06T08:31:11.993Z,7.60
2019-03-06T08:33:41.375Z,7.70
2019-03-06T08:36:10.751Z,7.80
2019-03-06T08:38:40.180Z,7.90
2019-03-06T08:41:09.608Z,8.00
2019-03-06T08:43:39.012Z,8.10
2019-03-06T08:46:33.504Z,8.20
2019-03-06T08:49:23.447Z,8.30
2019-03-06T08:51:58.291Z,8.40
2019-03-06T08:54:35.962Z,8.50
2019-03-06T08:57:32.964Z,8.60
2019-03-06T09:00:27.976Z,8.70
2019-03-06T09:03:20.900Z,8.70
2019-03-06T09:06:09.124Z,8.80
2019-03-06T09:08:56.771Z,8.90
2019-03-06T09:12:00.552Z,8.90
2019-03-06T09:14:38.783Z,9.00
2019-03-06T09:17:26.783Z,9.20
2019-03-06T09:20:35.925Z,9.20
2019-03-06T09:23:10.551Z,9.40
2019-03-06T09:26:10.803Z,9.50
2019-03-06T09:29:00.921Z,9.70
2019-03-06T09:31:45.669Z,9.90
2019-03-06T09:34:30.012Z,10.00
2019-03-06T09:37:15.075Z,10.10
2019-03-06T09:39:52.431Z,10.20
2019-03-06T09:42:39.204Z,10.30
2019-03-06T09:45:13.483Z,10.40
2019-03-06T09:47:57.075Z,10.50
2019-03-06T09:50:42.564Z,10.60
2019-03-06T09:53:30.903Z,10.70
2019-03-06T09:56:31.041Z,10.70
2019-03-06T09:59:18.026Z,10.90
2019-03-06T10:02:07.150Z,10.90
2019-03-06T10:04:52.548Z,10.90
2019-03-06T10:07:43.965Z,11.00
2019-03-06T10:10:45.975Z,11.10
2019-03-06T10:13:27.011Z,11.20
2019-03-06T10:16:05.351Z,11.30
2019-03-06T10:18:59.859Z,11.30
2019-03-06T10:21:29.247Z,11.40
2019-03-06T10:23:58.640Z,11.60
2019-03-06T10:26:28.946Z,11.70
2019-03-06T10:28:58.311Z,11.80
2019-03-06T10:31:27.721Z,12.00
2019-03-06T10:33:57.108Z,12.10
2019-03-06T10:36:26.506Z,12.20
2019-03-06T10:38:55.880Z,12.30
2019-03-06T10:41:25.554Z,12.40
2019-03-06T10:43:54.955Z,12.50
2019-03-06T10:46:24.361Z,12.60
2019-03-06T10:48:53.776Z,12.70
2019-03-06T10:51:23.359Z,12.80
2019-03-06T10:53:52.768Z,12.90
2019-03-06T10:56:22.244Z,13.10
2019-03-06T10:58:51.761Z,13.20
2019-03-06T11:01:21.443Z,13.30
2019-03-06T11:04:01.972Z,13.40
2019-03-06T11:06:31.349Z,13.60
2019-03-06T11:09:00.972Z,13.70
2019-03-06T11:11:30.612Z,13.80
2019-03-06T11:14:06.119Z,13.90
2019-03-06T11:16:31.185Z,14.00
2019-03-06T11:19:00.768Z,14.00
2019-03-06T11:21:30.148Z,14.00
2019-03-06T11:23:59.567Z,14.00
2019-03-06T11:26:29.247Z,14.00
2019-03-06T11:28:58.872Z,14.10
2019-03-06T11:31:28.355Z,14.20
2019-03-06T11:33:57.984Z,14.30
2019-03-06T11:36:27.383Z,14.50
2019-03-06T11:38:56.779Z,14.50
2019-03-06T11:41:26.183Z,14.60
2019-03-06T11:43:55.767Z,14.60
2019-03-06T11:46:25.163Z,14.60
2019-03-06T11:48:54.537Z,14.70
2019-03-06T11:51:23.964Z,14.70
2019-03-06T11:53:53.799Z,14.80
2019-03-06T11:56:23.178Z,14.80
2019-03-06T11:58:52.775Z,14.70
2019-03-06T12:01:24.078Z,14.70
2019-03-06T12:03:53.910Z,14.70
2019-03-06T12:06:23.507Z,14.70
2019-03-06T12:08:52.939Z,14.70
2019-03-06T12:11:22.435Z,14.70
2019-03-06T12:13:51.923Z,14.70
2019-03-06T12:16:21.439Z,14.80
2019-03-06T12:18:50.808Z,14.90
2019-03-06T12:21:20.223Z,14.90
2019-03-06T12:23:49.615Z,14.80
2019-03-06T12:26:19.023Z,14.80
2019-03-06T12:28:48.591Z,14.90
2019-03-06T12:31:17.983Z,15.00
2019-03-06T12:33:47.392Z,15.00
2019-03-06T12:36:16.771Z,15.10
2019-03-06T12:38:46.203Z,15.10
2019-03-06T12:41:15.764Z,15.20
2019-03-06T12:43:45.243Z,15.20
2019-03-06T12:46:24.236Z,15.20
2019-03-06T12:48:59.311Z,15.30
2019-03-06T12:51:29.338Z,15.30
2019-03-06T12:53:58.719Z,15.30
2019-03-06T12:56:28.115Z,15.30
2019-03-06T12:58:57.497Z,15.40
2019-03-06T13:01:26.917Z,15.50
2019-03-06T13:03:56.306Z,15.70
2019-03-06T13:06:26.043Z,16.00
2019-03-06T13:08:56.438Z,16.20
2019-03-06T13:11:26.083Z,16.20
2019-03-06T13:13:55.499Z,16.30
2019-03-06T13:16:24.975Z,16.30
2019-03-06T13:18:54.757Z,16.40
2019-03-06T13:21:24.122Z,16.40
2019-03-06T13:23:53.511Z,16.40
2019-03-06T13:26:22.951Z,16.30
2019-03-06T13:28:57.515Z,16.30
2019-03-06T13:31:23.383Z,16.30
2019-03-06T13:34:11.910Z,16.30
2019-03-06T13:36:41.415Z,16.40
2019-03-06T13:39:11.367Z,16.40
2019-03-06T13:41:40.793Z,16.40
2019-03-06T13:44:10.535Z,16.50
2019-03-06T13:46:39.914Z,16.60
2019-03-06T13:49:09.355Z,16.60
2019-03-06T13:51:38.745Z,16.50
2019-03-06T13:54:08.495Z,16.40
2019-03-06T13:56:38.567Z,16.40
2019-03-06T13:59:08.188Z,16.30
2019-03-06T14:01:37.608Z,16.20
2019-03-06T14:04:06.987Z,16.20
2019-03-06T14:06:36.404Z,16.20
2019-03-06T14:09:08.585Z,16.20
2019-03-06T14:11:37.967Z,16.20
2019-03-06T14:14:07.411Z,16.20
2019-03-06T14:16:36.799Z,16.10
2019-03-06T14:19:06.752Z,16.10
2019-03-06T14:21:36.132Z,16.00
2019-03-06T14:24:05.676Z,15.90
2019-03-06T14:26:35.079Z,15.90
2019-03-06T14:29:04.456Z,15.90
2019-03-06T14:31:33.897Z,15.80
2019-03-06T14:34:03.272Z,15.80
2019-03-06T14:36:32.948Z,15.70
2019-03-06T14:39:02.363Z,15.70
2019-03-06T14:41:31.846Z,15.60
2019-03-06T14:44:01.259Z,15.60
2019-03-06T14:46:30.652Z,15.50
2019-03-06T14:49:00.067Z,15.50
2019-03-06T14:51:29.536Z,15.50
2019-03-06T14:53:58.968Z,15.50
2019-03-06T14:56:28.546Z,15.60
2019-03-06T14:58:57.936Z,15.50
2019-03-06T15:01:27.339Z,15.60
2019-03-06T15:03:56.711Z,15.60
2019-03-06T15:06:26.340Z,15.60
2019-03-06T15:08:55.727Z,15.60
2019-03-06T15:11:32.974Z,15.60
2019-03-06T15:13:56.299Z,15.50
2019-03-06T15:16:25.699Z,15.50
2019-03-06T15:18:55.112Z,15.50
2019-03-06T15:21:24.496Z,15.40
2019-03-06T15:23:54.125Z,15.30
2019-03-06T15:26:23.505Z,15.20
2019-03-06T15:28:52.922Z,15.10
2019-03-06T15:31:22.307Z,15.00
2019-03-06T15:33:51.686Z,15.00
2019-03-06T15:36:21.203Z,14.90
2019-03-06T15:38:50.690Z,14.80
2019-03-06T15:41:20.103Z,14.70
2019-03-06T15:43:49.554Z,14.60
2019-03-06T15:46:19.075Z,14.50
2019-03-06T15:48:48.461Z,14.40
2019-03-06T15:51:17.960Z,14.30
2019-03-06T15:53:47.543Z,14.20
2019-03-06T15:56:16.927Z,14.10
2019-03-06T15:58:46.363Z,14.10
2019-03-06T16:01:15.755Z,14.00
2019-03-06T16:03:45.167Z,14.00
2019-03-06T16:06:20.382Z,14.00
2019-03-06T16:08:45.839Z,14.00
2019-03-06T16:11:15.222Z,13.90
2019-03-06T16:13:44.667Z,13.90
2019-03-06T16:16:14.087Z,13.90
2019-03-06T16:18:43.515Z,13.90
2019-03-06T16:21:13.003Z,13.90
2019-03-06T16:23:42.392Z,13.90
2019-03-06T16:26:11.799Z,13.80
2019-03-06T16:28:41.195Z,13.70
2019-03-06T16:31:10.908Z,13.60
2019-03-06T16:33:40.404Z,13.60
2019-03-06T16:36:09.811Z,13.50
2019-03-06T16:38:39.199Z,13.40
2019-03-06T16:41:08.687Z,13.30
2019-03-06T16:43:38.200Z,13.20
2019-03-06T16:46:07.607Z,13.10
2019-03-06T16:48:37.036Z,13.00
2019-03-06T16:51:07.706Z,13.00
2019-03-06T16:53:37.131Z,12.90
2019-03-06T16:56:06.643Z,12.80
2019-03-06T16:58:36.040Z,12.70
2019-03-06T17:01:05.812Z,12.60
2019-03-06T17:03:35.155Z,12.50
2019-03-06T17:06:04.690Z,12.40
2019-03-06T17:08:34.119Z,12.40
2019-03-06T17:11:03.559Z,12.30
2019-03-06T17:13:32.970Z,12.30
2019-03-06T17:16:02.412Z,12.20
2019-03-06T17:18:31.893Z,12.10
2019-03-06T17:21:01.268Z,12.00
2019-03-06T17:23:30.681Z,11.90
2019-03-06T17:26:00.064Z,11.80
2019-03-06T17:28:29.609Z,11.80
2019-03-06T17:30:58.996Z,11.70
2019-03-06T17:33:28.651Z,11.60
2019-03-06T17:35:58.035Z,11.60
2019-03-06T17:38:27.464Z,11.50
2019-03-06T17:40:56.988Z,11.40
2019-03-06T17:43:26.583Z,11.40
2019-03-06T17:45:56.363Z,11.40
2019-03-06T17:48:25.756Z,11.40
2019-03-06T17:50:55.214Z,11.40
2019-03-06T17:53:24.699Z,11.40
2019-03-06T17:55:54.192Z,11.30
2019-03-06T17:58:23.640Z,11.20
2019-03-06T18:00:56.739Z,11.20
2019-03-06T18:03:35.086Z,11.10
2019-03-06T18:06:04.474Z,11.00
2019-03-06T18:08:34.028Z,10.90
2019-03-06T18:11:04.072Z,10.70
2019-03-06T18:13:33.496Z,10.60
2019-03-06T18:16:02.939Z,10.50
2019-03-06T18:18:32.333Z,10.50
2019-03-06T18:21:01.752Z,10.40
2019-03-06T18:23:31.263Z,10.40
2019-03-06T18:26:00.696Z,10.40
2019-03-06T18:28:30.104Z,10.40
2019-03-06T18:30:59.640Z,10.40
2019-03-06T18:33:29.038Z,10.30
2019-03-06T18:35:59.115Z,10.30
2019-03-06T18:38:28.847Z,10.20
2019-03-06T18:40:58.272Z,10.20
2019-03-06T18:43:27.650Z,10.10
2019-03-06T18:45:57.142Z,10.00
2019-03-06T18:48:26.593Z,10.00
2019-03-06T18:50:56.029Z,10.00
2019-03-06T18:53:25.524Z,10.00
2019-03-06T18:55:54.956Z,10.00
2019-03-06T18:58:24.327Z,10.00
2019-03-06T19:00:53.772Z,10.00
2019-03-06T19:03:23.170Z,10.00
2019-03-06T19:05:52.572Z,10.00
2019-03-06T19:08:31.141Z,10.00
2019-03-06T19:10:54.021Z,10.00
2019-03-06T19:13:23.443Z,10.00
2019-03-06T19:15:53.855Z,10.00
2019-03-06T19:18:23.417Z,10.00
2019-03-06T19:20:53.050Z,10.00
2019-03-06T19:23:22.456Z,10.00
2019-03-06T19:25:51.852Z,10.00
2019-03-06T19:28:21.256Z,10.00
2019-03-06T19:30:50.673Z,10.00
2019-03-06T19:33:20.173Z,10.00
2019-03-06T19:35:49.672Z,10.00
2019-03-06T19:38:19.116Z,10.00
2019-03-06T19:40:48.523Z,9.90
2019-03-06T19:43:17.911Z,9.90
2019-03-06T19:45:47.363Z,9.80
2019-03-06T19:48:16.799Z,9.70
2019-03-06T19:50:46.375Z,9.70
2019-03-06T19:53:15.818Z,9.60
2019-03-06T19:55:46.435Z,9.50
2019-03-06T19:58:17.108Z,9.40
2019-03-06T20:00:46.453Z,9.40
2019-03-06T20:03:16.264Z,9.30
2019-03-06T20:05:45.775Z,9.30
2019-03-06T20:08:15.230Z,9.20
2019-03-06T20:10:44.740Z,9.20
2019-03-06T20:13:14.146Z,9.10
2019-03-06T20:15:43.551Z,9.10
2019-03-06T20:18:12.959Z,9.10
2019-03-06T20:20:42.555Z,9.10
2019-03-06T20:23:11.974Z,9.10
2019-03-06T20:25:41.366Z,9.10
2019-03-06T20:28:10.779Z,9.10
2019-03-06T20:30:40.181Z,9.20
2019-03-06T20:33:09.700Z,9.20
2019-03-06T20:35:39.276Z,9.20
2019-03-06T20:38:08.676Z,9.20
2019-03-06T20:40:38.100Z,9.20
2019-03-06T20:43:07.475Z,9.20
2019-03-06T20:45:36.888Z,9.10
2019-03-06T20:48:06.359Z,9.10
2019-03-06T20:50:35.887Z,9.10
2019-03-06T20:53:05.273Z,9.10
2019-03-06T20:55:34.659Z,9.10
2019-03-06T20:58:04.261Z,9.10
2019-03-06T21:00:33.645Z,9.20
2019-03-06T21:03:03.137Z,9.20
2019-03-06T21:05:32.530Z,9.20
2019-03-06T21:08:01.908Z,9.20
2019-03-06T21:10:31.338Z,9.20
2019-03-06T21:13:00.732Z,9.20
2019-03-06T21:15:30.134Z,9.20
2019-03-06T21:18:00.318Z,9.20
2019-03-06T21:20:29.802Z,9.20
2019-03-06T21:22:59.188Z,9.30
2019-03-06T21:25:28.572Z,9.20
2019-03-06T21:27:57.995Z,9.30
2019-03-06T21:30:38.599Z,9.20
2019-03-06T21:33:08.003Z,9.20
2019-03-06T21:35:37.401Z,9.20
2019-03-06T21:38:06.838Z,9.20
2019-03-06T21:40:36.204Z,9.20
2019-03-06T21:43:05.577Z,9.20
2019-03-06T21:45:35.003Z,9.30
2019-03-06T21:48:04.434Z,9.40
2019-03-06T21:50:33.839Z,9.30
2019-03-06T21:53:03.221Z,9.30
2019-03-06T21:55:32.727Z,9.40
2019-03-06T21:58:02.106Z,9.40
2019-03-06T22:00:31.480Z,9.40
2019-03-06T22:03:00.887Z,9.30
2019-03-06T22:05:30.282Z,9.30
2019-03-06T22:07:59.709Z,9.30
2019-03-06T22:10:29.194Z,9.20
2019-03-06T22:12:58.608Z,9.20
2019-03-06T22:15:27.991Z,9.10
2019-03-06T22:17:57.403Z,9.10
2019-03-06T22:20:27.311Z,9.00
2019-03-06T22:22:56.720Z,9.00
2019-03-06T22:25:26.133Z,8.90
2019-03-06T22:27:55.529Z,8.80
2019-03-06T22:30:25.084Z,8.70
2019-03-06T22:32:54.463Z,8.70
2019-03-06T22:35:23.883Z,8.70
2019-03-06T22:37:53.266Z,8.70
2019-03-06T22:40:22.647Z,8.70
2019-03-06T22:42:52.052Z,8.80
2019-03-06T22:45:21.444Z,8.80
2019-03-06T22:47:50.919Z,8.80
2019-03-06T22:50:20.480Z,8.90
2019-03-06T22:52:50.171Z,8.90
2019-03-06T22:55:19.972Z,8.90
2019-03-06T22:57:49.352Z,8.90
2019-03-06T23:00:51.817Z,8.90
2019-03-06T23:03:21.727Z,8.90
2019-03-06T23:05:51.137Z,8.90
2019-03-06T23:08:20.527Z,8.80
2019-03-06T23:10:49.943Z,8.70
2019-03-06T23:13:19.326Z,8.60
2019-03-06T23:15:48.738Z,8.50
2019-03-06T23:18:18.135Z,8.30
2019-03-06T23:20:47.519Z,8.20
2019-03-06T23:23:16.966Z,8.20
2019-03-06T23:25:46.328Z,8.10
2019-03-06T23:28:15.956Z,8.10
2019-03-06T23:30:45.703Z,8.00
2019-03-06T23:33:15.128Z,7.90
2019-03-06T23:35:44.517Z,7.90
2019-03-06T23:38:13.900Z,7.80
2019-03-06T23:40:43.293Z,7.80
2019-03-06T23:43:12.664Z,7.70
2019-03-06T23:45:42.064Z,7.60
2019-03-06T23:48:11.507Z,7.60
2019-03-06T23:50:40.967Z,7.60
2019-03-06T23:53:12.269Z,7.50
2019-03-06T23:55:41.850Z,7.50
2019-03-06T23:58:11.279Z,7.50
